This is the latest recevied weather packets stored in our database for station/object EA7HQL-10. If no packets are shown the sender has not sent any weather packets the latest 10 day(s).
| Time | Temp. | Humidity | Pressure | Rain* | Wind** | Luminosity | Snow |
|---|---|---|---|---|---|---|---|
| 1777884750 | 21.11° C | 58% | 1012.6 hPa | 0 mm | - | - | - |
| 1777884486 | 20.56° C | 60% | 1012.5 hPa | 0 mm | - | - | - |
| 1777884210 | 21.11° C | 60% | 1012.5 hPa | 0 mm | - | - | - |
| 1777883935 | 20° C | 62% | 1012.4 hPa | 0 mm | - | - | - |
| 1777883635 | 20° C | 64% | 1012.5 hPa | 0 mm | - | - | - |
| 1777883371 | 20° C | 63% | 1012.5 hPa | 0 mm | - | - | - |
| 1777883080 | 20° C | 64% | 1012.6 hPa | 0 mm | - | - | - |
| 1777882810 | 20° C | 63% | 1012.6 hPa | 0 mm | - | - | - |
| 1777882520 | 19.44° C | 66% | 1012.5 hPa | 0 mm | - | - | - |
| 1777882264 | 19.44° C | 67% | 1012.5 hPa | 0 mm | - | - | - |
| 1777882005 | 20° C | 64% | 1012.5 hPa | 0 mm | - | - | - |
| 1777881730 | 20° C | 60% | 1012.5 hPa | 0 mm | - | - | - |
| 1777881455 | 20° C | 60% | 1012.4 hPa | 0 mm | - | - | - |
| 1777881166 | 20° C | 60% | 1012.5 hPa | 0 mm | - | - | - |
| 1777880920 | 20° C | 59% | 1012.5 hPa | 0 mm | - | - | - |
| 1777880645 | 20° C | 60% | 1012.2 hPa | 0 mm | - | - | - |
| 1777880365 | 19.44° C | 60% | 1012.3 hPa | 0 mm | - | - | - |
| 1777880064 | 19.44° C | 60% | 1012.3 hPa | 0 mm | - | - | - |
| 1777879819 | 19.44° C | 60% | 1012.3 hPa | 0 mm | - | - | - |
| 1777879540 | 19.44° C | 60% | 1012.1 hPa | 0 mm | - | - | - |
| 1777879250 | 19.44° C | 60% | 1012.1 hPa | 0 mm | - | - | - |
| 1777878960 | 18.89° C | 60% | 1012.1 hPa | 0 mm | - | - | - |
| 1777878665 | 18.89° C | 61% | 1012.2 hPa | 0 mm | - | - | - |
| 1777878390 | 18.89° C | 61% | 1012.1 hPa | 0 mm | - | - | - |
| 1777878145 | 18.89° C | 60% | 1012.2 hPa | 0 mm | - | - | - |
* Rain latest hour (hover to see other rain measurements)
** Current wind speed in m/s (hover to see current wind gust speed)